createdAt,value
2022-09-01T00:02:35.000Z,0.57
2022-09-01T00:07:35.000Z,0.5
2022-09-01T00:12:35.000Z,0.47
2022-09-01T00:17:35.000Z,0.64
2022-09-01T00:22:35.000Z,0.5
2022-09-01T00:27:41.000Z,0.63
2022-09-01T00:32:35.000Z,0.71
2022-09-01T00:37:34.000Z,0.7
2022-09-01T00:42:35.000Z,0.59
2022-09-01T00:47:34.000Z,0.58
2022-09-01T00:52:35.000Z,0.77
2022-09-01T00:57:35.000Z,0.77
2022-09-01T01:02:35.000Z,0.55
2022-09-01T01:07:35.000Z,0.69
2022-09-01T01:12:35.000Z,0.81
2022-09-01T01:17:35.000Z,0.4
2022-09-01T01:22:35.000Z,0.35
2022-09-01T01:27:34.000Z,0.64
2022-09-01T01:32:35.000Z,0.55
2022-09-01T01:37:34.000Z,0.69
2022-09-01T01:42:35.000Z,0.47
2022-09-01T01:47:34.000Z,0.26
2022-09-01T01:52:37.000Z,0.76
2022-09-01T01:57:35.000Z,0.44
2022-09-01T02:02:34.000Z,0.63
2022-09-01T02:07:34.000Z,0.48
2022-09-01T02:12:35.000Z,0.48
2022-09-01T02:17:35.000Z,0.34
2022-09-01T02:22:35.000Z,0.41
2022-09-01T02:27:35.000Z,0.49
2022-09-01T02:32:35.000Z,0.25
2022-09-01T02:37:35.000Z,0.12
2022-09-01T02:42:35.000Z,0.35
2022-09-01T02:47:34.000Z,0.36
2022-09-01T02:52:34.000Z,0.72
2022-09-01T02:57:34.000Z,0.69
2022-09-01T03:02:35.000Z,0.41
2022-09-01T03:07:35.000Z,0.17
2022-09-01T03:12:34.000Z,0.46
2022-09-01T03:17:35.000Z,0.2
2022-09-01T03:22:35.000Z,0.27
2022-09-01T03:27:34.000Z,0.27
2022-09-01T03:32:35.000Z,0.44
2022-09-01T03:37:37.000Z,0.09
2022-09-01T03:42:35.000Z,0.4
2022-09-01T03:47:34.000Z,0.98
2022-09-01T03:52:35.000Z,0.94
2022-09-01T03:57:35.000Z,0.38
2022-09-01T04:02:35.000Z,0.31
2022-09-01T04:07:35.000Z,0.55
2022-09-01T04:12:34.000Z,0.58
2022-09-01T04:17:40.000Z,1.96
2022-09-01T04:22:34.000Z,0.86
2022-09-01T04:27:34.000Z,0.64
2022-09-01T04:32:34.000Z,0.68
2022-09-01T04:37:35.000Z,0.63
2022-09-01T04:42:34.000Z,0.63
2022-09-01T04:47:34.000Z,1.11
2022-09-01T04:52:35.000Z,0.39
2022-09-01T04:57:35.000Z,0.72
2022-09-01T05:02:35.000Z,1.13
2022-09-01T05:07:35.000Z,0.53
2022-09-01T05:12:35.000Z,0.29
2022-09-01T05:17:35.000Z,0.35
2022-09-01T05:22:34.000Z,0.61
2022-09-01T05:27:34.000Z,0.23
2022-09-01T05:32:34.000Z,0.27
2022-09-01T05:37:34.000Z,0.23
2022-09-01T05:42:35.000Z,0.58
2022-09-01T05:47:35.000Z,0.4
2022-09-01T05:52:35.000Z,3.02
2022-09-01T05:57:44.000Z,0.09
2022-09-01T06:02:34.000Z,0.09
2022-09-01T06:12:35.000Z,0.06
2022-09-01T06:17:35.000Z,0.05
2022-09-01T06:27:35.000Z,1.16
2022-09-01T06:32:34.000Z,13.59
2022-09-01T06:37:35.000Z,13.81
2022-09-01T06:42:34.000Z,6.42
2022-09-01T06:47:35.000Z,1.35
2022-09-01T06:58:05.000Z,0.7
2022-09-01T07:43:08.000Z,0.72
2022-09-01T07:48:02.000Z,0.71
2022-09-01T07:52:35.000Z,0.73
2022-09-01T07:57:35.000Z,0.67
2022-09-01T08:02:35.000Z,0.34
2022-09-01T08:07:34.000Z,0.57
2022-09-01T08:12:39.000Z,1.49
2022-09-01T08:18:01.000Z,1.36
2022-09-01T08:22:35.000Z,1.38
2022-09-01T08:27:34.000Z,1.38
2022-09-01T08:32:35.000Z,1.31
2022-09-01T08:37:34.000Z,1.56
2022-09-01T08:42:41.000Z,1.46
2022-09-01T08:47:54.000Z,0.94
2022-09-01T08:52:35.000Z,1.25
2022-09-01T08:57:35.000Z,1.41
2022-09-01T09:02:35.000Z,1.42
2022-09-01T09:07:34.000Z,1.37
2022-09-01T09:12:35.000Z,1.41
2022-09-01T09:17:35.000Z,1.1
2022-09-01T09:22:35.000Z,1.21
2022-09-01T09:27:36.000Z,1.69
2022-09-01T09:42:41.000Z,2.43
2022-09-01T09:47:53.000Z,6.31
2022-09-01T09:52:35.000Z,4.15
2022-09-01T09:57:35.000Z,3.29
2022-09-01T10:02:38.000Z,3.64
2022-09-01T10:07:35.000Z,2.46
2022-09-01T10:12:35.000Z,1.83
2022-09-01T10:17:36.000Z,2.97
2022-09-01T10:22:35.000Z,1.67
2022-09-01T10:27:34.000Z,1.79
2022-09-01T10:32:47.000Z,1.99
2022-09-01T10:37:37.000Z,1.97
2022-09-01T10:42:35.000Z,2.02
2022-09-01T10:47:35.000Z,1.02
2022-09-01T10:52:38.000Z,1.02
2022-09-01T10:57:38.000Z,1.18
2022-09-01T11:02:38.000Z,1.77
2022-09-01T11:08:07.000Z,1.07
2022-09-01T11:12:40.000Z,1.45
2022-09-01T11:17:35.000Z,1.15
2022-09-01T11:22:36.000Z,1.36
2022-09-01T11:27:39.000Z,1.03
2022-09-01T11:32:34.000Z,2.91
2022-09-01T11:37:37.000Z,2.33
2022-09-01T11:42:36.000Z,1.05
2022-09-01T11:47:34.000Z,2.03
2022-09-01T11:52:34.000Z,2.15
2022-09-01T11:57:34.000Z,1.22
2022-09-01T12:02:35.000Z,1
2022-09-01T12:07:35.000Z,1
2022-09-01T12:12:34.000Z,1.1
2022-09-01T12:17:35.000Z,1.28
2022-09-01T12:22:35.000Z,1.25
2022-09-01T12:27:34.000Z,1.18
2022-09-01T12:37:34.000Z,1.1
2022-09-01T12:42:35.000Z,1.48
2022-09-01T12:47:37.000Z,1.44
2022-09-01T12:52:35.000Z,0.98
2022-09-01T12:57:35.000Z,1.38
2022-09-01T13:02:36.000Z,1.53
2022-09-01T13:07:34.000Z,1.9
2022-09-01T13:12:35.000Z,1.8
2022-09-01T13:17:35.000Z,1.17
2022-09-01T13:22:34.000Z,0.86
2022-09-01T13:27:36.000Z,0.86
2022-09-01T13:32:34.000Z,0.98
2022-09-01T13:37:35.000Z,0.89
2022-09-01T13:42:39.000Z,1.13
2022-09-01T13:47:39.000Z,3.8
2022-09-01T13:52:35.000Z,3.11
2022-09-01T13:57:35.000Z,0.98
2022-09-01T14:02:34.000Z,1.33
2022-09-01T14:07:35.000Z,1.36
2022-09-01T14:12:35.000Z,1.43
2022-09-01T14:17:34.000Z,1.72
2022-09-01T14:22:35.000Z,1.94
2022-09-01T14:27:35.000Z,1.45
2022-09-01T14:32:34.000Z,1.08
2022-09-01T14:37:35.000Z,1
2022-09-01T14:42:35.000Z,1
2022-09-01T14:47:35.000Z,0.83
2022-09-01T14:52:34.000Z,2.04
2022-09-01T14:57:46.000Z,1.41
2022-09-01T15:02:35.000Z,4.44
2022-09-01T15:07:35.000Z,1.83
2022-09-01T15:12:34.000Z,1.83
2022-09-01T15:17:35.000Z,1.88
2022-09-01T15:22:35.000Z,1.86
2022-09-01T15:27:34.000Z,1.77
2022-09-01T15:32:38.000Z,1.27
2022-09-01T15:37:35.000Z,1.05
2022-09-01T15:42:34.000Z,2.62
2022-09-01T15:47:34.000Z,2
2022-09-01T15:52:35.000Z,1.85
2022-09-01T15:57:34.000Z,1.85
2022-09-01T16:02:35.000Z,1.61
2022-09-01T16:07:36.000Z,1.33
2022-09-01T16:12:34.000Z,1.48
2022-09-01T16:17:35.000Z,2.2
2022-09-01T16:22:35.000Z,2.85
2022-09-01T16:27:35.000Z,4.2
2022-09-01T16:32:35.000Z,5.39
2022-09-01T16:37:35.000Z,5.78
2022-09-01T16:42:34.000Z,4.18
2022-09-01T16:47:35.000Z,4.41
2022-09-01T16:52:35.000Z,3.41
2022-09-01T16:57:35.000Z,1.55
2022-09-01T17:02:35.000Z,1.21
2022-09-01T17:07:39.000Z,1.46
2022-09-01T17:17:35.000Z,0.99
2022-09-01T17:22:35.000Z,1.29
2022-09-01T17:27:35.000Z,1.65
2022-09-01T17:32:35.000Z,1.73
2022-09-01T17:37:39.000Z,1.51
2022-09-01T17:42:35.000Z,1.51
2022-09-01T17:47:35.000Z,1.33
2022-09-01T17:52:34.000Z,0.75
2022-09-01T17:57:35.000Z,0.92
2022-09-01T18:02:34.000Z,0.45
2022-09-01T18:07:34.000Z,0.56
2022-09-01T18:12:35.000Z,0.65
2022-09-01T18:17:35.000Z,0.56
2022-09-01T18:22:34.000Z,0.69
2022-09-01T18:27:38.000Z,0.42
2022-09-01T18:32:35.000Z,0.81
2022-09-01T18:37:34.000Z,0.56
2022-09-01T18:42:35.000Z,0.91
2022-09-01T18:47:35.000Z,1.3
2022-09-01T18:52:35.000Z,0.72
2022-09-01T18:57:34.000Z,0.72
2022-09-01T19:02:35.000Z,0.47
2022-09-01T19:07:35.000Z,0.64
2022-09-01T19:12:34.000Z,0.31
2022-09-01T19:17:34.000Z,0.73
2022-09-01T19:22:35.000Z,0.78
2022-09-01T19:27:34.000Z,0.7
2022-09-01T19:32:34.000Z,0.73
2022-09-01T19:37:34.000Z,0.78
2022-09-01T19:42:34.000Z,0.91
2022-09-01T19:47:35.000Z,0.39
2022-09-01T19:52:34.000Z,1.67
2022-09-01T19:57:34.000Z,0.8
2022-09-01T20:02:35.000Z,0.44
2022-09-01T20:07:38.000Z,0.85
2022-09-01T20:12:34.000Z,0.85
2022-09-01T20:17:35.000Z,1.1
2022-09-01T20:22:41.000Z,0.95
2022-09-01T20:27:35.000Z,0.92
2022-09-01T20:32:35.000Z,0.81
2022-09-01T20:37:34.000Z,0.81
2022-09-01T20:42:35.000Z,0.71
2022-09-01T20:47:35.000Z,0.98
2022-09-01T20:52:35.000Z,0.97
2022-09-01T20:57:35.000Z,1.49
2022-09-01T21:02:34.000Z,1.7
2022-09-01T21:07:41.000Z,2.09
2022-09-01T21:12:34.000Z,1.86
2022-09-01T21:17:35.000Z,1.7
2022-09-01T21:22:35.000Z,0.97
2022-09-01T21:27:34.000Z,0.97
2022-09-01T21:32:34.000Z,0.45
2022-09-01T21:37:35.000Z,0.06
2022-09-01T21:42:34.000Z,0.22
2022-09-01T21:47:35.000Z,0.25
2022-09-01T21:52:35.000Z,0.09
2022-09-01T21:57:35.000Z,0.42
2022-09-01T22:02:38.000Z,0.53
2022-09-01T22:07:35.000Z,0.38
2022-09-01T22:12:34.000Z,0.32
2022-09-01T22:17:34.000Z,0.25
2022-09-01T22:22:34.000Z,0.5
2022-09-01T22:27:35.000Z,0.42
2022-09-01T22:32:34.000Z,0.45
2022-09-01T22:37:34.000Z,0.47
2022-09-01T22:42:35.000Z,0.5
2022-09-01T22:47:35.000Z,0.5
2022-09-01T22:52:35.000Z,0.53
2022-09-01T22:57:35.000Z,0.5
2022-09-01T23:02:35.000Z,0.42
2022-09-01T23:07:35.000Z,0.4
2022-09-01T23:12:34.000Z,0.26
2022-09-01T23:17:35.000Z,0.26
2022-09-01T23:22:35.000Z,0.2
2022-09-01T23:27:34.000Z,0.21
2022-09-01T23:32:35.000Z,0.22
2022-09-01T23:37:35.000Z,0.51
2022-09-01T23:42:34.000Z,0.86
2022-09-01T23:47:35.000Z,0.48
2022-09-01T23:52:35.000Z,0.42
2022-09-01T23:57:35.000Z,0.4
